Sch-135 Galibier — PBIB — position and weather

sailwx.info

Track history (hours):
 
Tides and Currents Weather Stations Pressure Air Temp Water Temp Dewpoint Dewpoint Depression Visibility Wind Speed Wind Dir Waves Ship Positions

Sch-135 Galibier

Last reported at 2018-May-25 01:50 UTC. Time now 2018-May-26 17:49 UTC.
Position N 52°06' E 004°16'.

Length 35 m.

MMSI: 244630637.

Date/timePositionNaut miles runAvg speedWind from/ knotsBaromVisibWave heightAir tempDewpointWater temp
2018-May-25 01:50N 52°06' E 004°16'0 0.3
2018-May-25 01:30N 52°06' E 004°16'0 0.0
2018-May-25 01:00N 52°06' E 004°16'2 3.5
2018-May-25 00:30N 52°08' E 004°15'4 8.9
2018-May-25 00:00N 52°12' E 004°16'4 8.6
2018-May-24 23:30N 52°16' E 004°16'4 8.4
2018-May-24 23:00N 52°21' E 004°16'4 8.7
2018-May-24 22:30N 52°25' E 004°16'5 9.0
2018-May-24 21:55N 52°30' E 004°16'29 3.6
2018-May-24 13:52N 52°59' E 004°13'3 6.9
2018-May-24 13:28N 53°01' E 004°16'7 1.5
2018-May-24 09:00N 52°55' E 004°13'4 1.1
2018-May-24 05:09N 52°59' E 004°12'1 5.6
2018-May-24 04:58N 52°60' E 004°13'0 0.1
2018-May-24 03:49N 52°59' E 004°13'1 3.1
2018-May-24 03:29N 53°00' E 004°13'16 4.5
2018-May-23 23:54N 53°16' E 004°19'5 5.0
2018-May-23 22:50N 53°21' E 004°22'4 5.5
2018-May-23 22:00N 53°26' E 004°23'3 6.0
2018-May-23 21:30N 53°29' E 004°23'2 3.1
2018-May-23 21:00N 53°30' E 004°25'2 1.9
2018-May-23 20:06N 53°30' E 004°28'0 0.9
2018-May-23 20:00N 53°30' E 004°28'0 0.7
2018-May-23 19:30N 53°30' E 004°29'1 1.8
2018-May-23 18:51N 53°31' E 004°28'0 0.9
2018-May-23 18:30N 53°31' E 004°28'1 2.2
2018-May-23 18:00N 53°32' E 004°29'1 1.4
2018-May-23 17:30N 53°32' E 004°28'0 0.7
2018-May-23 16:52N 53°32' E 004°29'0 1.2
2018-May-23 16:30N 53°32' E 004°29'0 0.1
2018-May-23 16:00N 53°32' E 004°29'0 0.9
2018-May-23 15:30N 53°33' E 004°29'1 1.2
2018-May-23 15:01N 53°32' E 004°29'2 3.5
2018-May-23 14:30N 53°31' E 004°28'0 0.7
2018-May-23 14:00N 53°31' E 004°28'0 0.3
2018-May-23 13:30N 53°31' E 004°28'0 0.8
2018-May-23 12:58N 53°31' E 004°29'0 0.9
2018-May-23 12:30N 53°31' E 004°28'0 0.6
2018-May-23 11:59N 53°31' E 004°28'2 2.6
2018-May-23 11:20N 53°32' E 004°26'0 0.8
2018-May-23 11:00N 53°31' E 004°25'1 0.6
2018-May-23 09:29N 53°31' E 004°25'0 0.5
2018-May-23 09:00N 53°31' E 004°24'2 0.9
2018-May-23 06:37N 53°32' E 004°27'1 5.9
2018-May-23 06:26N 53°32' E 004°29'13 7.5
2018-May-23 04:39N 53°41' E 004°46'0 1.0
2018-May-23 04:24N 53°41' E 004°46'0 0.8
2018-May-23 04:00N 53°41' E 004°45'1 2.8
2018-May-23 03:30N 53°42' E 004°44'4 7.9
2018-May-23 03:00N 53°38' E 004°44'3 6.7
2018-May-23 02:31N 53°36' E 004°49'610.2
2018-May-23 01:57N 53°31' E 004°47'510.5
2018-May-23 01:30N 53°26' E 004°44'2211.2
2018-May-22 23:32N 53°06' E 004°31'111.6
2018-May-22 23:30N 53°05' E 004°31'711.7
2018-May-22 22:55N 52°58' E 004°33'511.2
2018-May-22 22:30N 52°54' E 004°35'3 6.8
2018-May-22 22:00N 52°56' E 004°40'4 7.7
2018-May-22 21:30N 52°58' E 004°45'1 2.9
2018-May-22 21:00N 52°57' E 004°47'0 0.0
2018-May-22 20:30N 52°57' E 004°47'1 1.9
2018-May-22 20:00N 52°58' E 004°47'4 8.7
2018-May-22 19:30N 52°56' E 004°40'4 8.2
2018-May-22 19:00N 52°53' E 004°35'5 9.3
2018-May-22 18:30N 52°54' E 004°28'5 9.6
2018-May-22 18:00N 52°54' E 004°20'4 8.5
2018-May-22 17:30N 52°56' E 004°14'1 1.3
2018-May-22 17:00N 52°57' E 004°14'1 1.5
2018-May-22 16:30N 52°58' E 004°14'1 1.5
2018-May-22 16:00N 52°57' E 004°15'1 1.0
2018-May-22 15:26N 52°58' E 004°16'1 3.1
2018-May-22 15:00N 52°59' E 004°16'8 7.4
2018-May-22 13:56N 53°07' E 004°18'3 3.3
2018-May-22 12:53N 53°11' E 004°19'1 3.2
2018-May-22 12:30N 53°09' E 004°18'1 0.6
2018-May-22 11:29N 53°10' E 004°17'0 0.4
2018-May-22 10:54N 53°10' E 004°17'510.8
2018-May-22 10:26N 53°05' E 004°16'3 5.9
2018-May-22 09:57N 53°02' E 004°15'0 0.9
2018-May-22 09:27N 53°01' E 004°14'1 1.1
2018-May-22 08:59N 53°01' E 004°14'0 0.1
2018-May-22 08:26N 53°01' E 004°14'1 2.0
2018-May-22 07:54N 53°00' E 004°12'2 3.2
2018-May-22 07:16N 52°59' E 004°11'0 0.7
2018-May-22 06:34N 52°59' E 004°11'0 0.6
2018-May-22 06:30N 52°59' E 004°11'0 0.2
2018-May-22 06:00N 52°59' E 004°11'2 4.1
2018-May-22 05:30N 52°59' E 004°15'0 0.8
2018-May-22 04:59N 52°59' E 004°15'0 0.3
2018-May-22 04:31N 52°59' E 004°15'1 1.1
2018-May-22 04:00N 52°59' E 004°16'1 1.1
2018-May-22 03:30N 52°60' E 004°17'0 0.8
2018-May-22 03:00N 52°60' E 004°16'0 0.8
2018-May-22 02:30N 52°59' E 004°16'0 0.6
2018-May-22 02:00N 52°60' E 004°16'1 1.1
2018-May-22 01:30N 53°00' E 004°17'1 1.2
2018-May-22 01:00N 52°60' E 004°17'4 8.3
2018-May-22 00:30N 52°57' E 004°23'5 9.8
2018-May-22 00:00N 52°55' E 004°30'510.0
2018-May-21 23:30N 52°53' E 004°38'5 9.9
2018-May-21 23:00N 52°57' E 004°42'3 5.7
2018-May-21 22:31N 52°57' E 004°47'0 0.1
2018-May-21 22:00N 52°57' E 004°47'0 0.0
2018-May-21 21:30N 52°57' E 004°47'0 0.0
2018-May-21 21:00N 52°57' E 004°47'0 0.0
2018-May-21 20:30N 52°57' E 004°47'0 0.0
2018-May-21 20:00N 52°57' E 004°47'2 4.6
2018-May-21 19:30N 52°58' E 004°43'510.3
2018-May-21 19:00N 52°54' E 004°38'4 8.6
2018-May-21 18:30N 52°55' E 004°31'5 9.1
2018-May-21 18:00N 52°56' E 004°24'5 9.4
2018-May-21 17:30N 52°59' E 004°17'2 1.8
2018-May-21 16:40N 52°60' E 004°16'0 1.2
2018-May-21 16:30N 52°60' E 004°16'0 0.3
2018-May-21 16:00N 53°00' E 004°16'2 2.2
2018-May-21 14:56N 53°02' E 004°16'1 1.6
2018-May-21 14:28N 53°02' E 004°17'2 2.4
2018-May-21 13:44N 53°04' E 004°19'1 2.8
2018-May-21 13:28N 53°05' E 004°18'1 0.9
2018-May-21 12:10N 53°05' E 004°20'1 4.7
2018-May-21 11:59N 53°06' E 004°20'5 3.3
2018-May-21 10:35N 53°01' E 004°19'2 1.7
2018-May-21 09:13N 52°59' E 004°17'1 5.7
2018-May-21 09:00N 52°58' E 004°16'1 2.4
2018-May-21 08:30N 52°59' E 004°16'0 0.9
2018-May-21 07:59N 52°59' E 004°16'1 2.8
2018-May-21 07:27N 52°57' E 004°16'2 4.5
2018-May-21 07:00N 52°59' E 004°15'0 0.2
2018-May-21 06:30N 52°59' E 004°15'0 0.6
2018-May-21 06:00N 52°59' E 004°15'0 0.5
2018-May-21 05:30N 52°59' E 004°15'1 1.5
2018-May-21 04:59N 52°60' E 004°16'0 0.8
2018-May-21 04:31N 52°60' E 004°17'0 0.9
2018-May-21 04:00N 52°59' E 004°16'6 9.0
2018-May-21 03:21N 52°54' E 004°13'3 7.9
2018-May-21 03:00N 52°51' E 004°15'4 8.0
2018-May-21 02:30N 52°48' E 004°19'5 9.0
2018-May-21 02:00N 52°44' E 004°19'5 9.0
2018-May-21 01:29N 52°39' E 004°19'4 9.1
2018-May-21 01:00N 52°35' E 004°19'4 9.0
2018-May-21 00:30N 52°30' E 004°18'5 9.1
2018-May-21 00:01N 52°26' E 004°17'5 9.2
2018-May-20 23:30N 52°21' E 004°16'5 9.4
2018-May-20 23:00N 52°16' E 004°16'5 9.7
2018-May-20 22:31N 52°12' E 004°15'  
2018-May-18 00:23N 52°06' E 004°16'0 0.3
2018-May-18 00:01N 52°06' E 004°16'0 0.0
2018-May-17 23:30N 52°06' E 004°16'0 0.0
2018-May-17 23:00N 52°06' E 004°16'8 8.2
2018-May-17 22:00N 52°14' E 004°16'611.4
2018-May-17 21:31N 52°20' E 004°16'611.4
2018-May-17 21:00N 52°26' E 004°17'611.2
2018-May-17 20:30N 52°31' E 004°19'30 1.4
2018-May-16 23:36N 52°46' E 003°36'7 5.7
2018-May-16 22:19N 52°44' E 003°25'2 5.5
2018-May-16 21:55N 52°43' E 003°22'2 5.4
2018-May-16 21:30N 52°42' E 003°18'10 5.8
2018-May-16 19:43N 52°40' E 003°01'1 1.3
2018-May-16 18:42N 52°40' E 002°60'1 1.9
2018-May-16 18:20N 52°41' E 002°59'1 3.9
2018-May-16 17:57N 52°40' E 003°01'0 0.7
2018-May-16 17:29N 52°40' E 003°01'1 0.9
2018-May-16 16:49N 52°39' E 003°01'0 0.9
2018-May-16 16:28N 52°39' E 003°01'1 2.1
2018-May-16 15:51N 52°38' E 003°03'1 2.0
2018-May-16 15:29N 52°38' E 003°02'1 1.4
2018-May-16 14:52N 52°38' E 003°00'6 0.7
2018-May-16 07:09N 52°37' E 002°51'2 8.3
2018-May-16 06:57N 52°35' E 002°51'6 8.7
2018-May-16 06:18N 52°29' E 002°49'4 9.7
2018-May-16 05:54N 52°26' E 002°48'1810.7
2018-May-16 04:10N 52°08' E 002°41'411.4
2018-May-16 03:50N 52°04' E 002°40'511.4
2018-May-16 03:26N 51°59' E 002°39'610.5
2018-May-16 02:50N 51°53' E 002°40'4 9.8
2018-May-16 02:25N 51°49' E 002°39'711.8
2018-May-16 01:50N 51°43' E 002°33'411.8
2018-May-16 01:27N 51°40' E 002°29'511.7
2018-May-16 01:00N 51°35' E 002°24'611.6
2018-May-16 00:30N 51°31' E 002°18'511.2
2018-May-16 00:00N 51°26' E 002°13'510.9
2018-May-15 23:30N 51°21' E 002°09'510.8
2018-May-15 23:00N 51°17' E 002°05'611.2
2018-May-15 22:30N 51°13' E 001°58'610.3
2018-May-15 21:54N 51°08' E 001°51'5 9.3
2018-May-15 21:24N 51°05' E 001°46'3 8.6
2018-May-15 21:00N 51°02' E 001°43'4 8.0
2018-May-15 20:30N 50°59' E 001°38'16 5.9
2018-May-15 17:49N 50°44' E 001°35'0 0.0
2018-May-15 17:30N 50°44' E 001°35'40 4.8
2018-May-15 09:05N 50°31' E 000°35'1 0.4
2018-May-15 07:24N 50°31' E 000°34'6 3.4
2018-May-15 05:42N 50°34' E 000°42'1 4.8
2018-May-15 05:30N 50°35' E 000°42'1 2.4
2018-May-15 04:57N 50°33' E 000°42'1 1.2
2018-May-15 04:22N 50°34' E 000°43'0 0.9
2018-May-15 04:00N 50°34' E 000°43'0 0.8
2018-May-15 03:24N 50°34' E 000°44'1 1.5
2018-May-15 02:52N 50°34' E 000°45'0 1.2
2018-May-15 02:28N 50°35' E 000°46'1 1.1
2018-May-15 01:56N 50°35' E 000°46'  
Track history (hours):
 
Tides and Currents Weather Stations Pressure Air Temp Water Temp Dewpoint Dewpoint Depression Visibility Wind Speed Wind Dir Waves Ship Positions

Sch-135 Galibier

Last reported at 2018-May-25 01:50 UTC. Time now 2018-May-26 17:49 UTC.
Position N 52°06' E 004°16'.

Length 35 m.

MMSI: 244630637.

Date/timePositionNaut miles runAvg speedWind from/ knotsBaromVisibWave heightAir tempDewpointWater temp
2018-May-25 01:50N 52°06' E 004°16'0 0.3
2018-May-25 01:30N 52°06' E 004°16'0 0.0
2018-May-25 01:00N 52°06' E 004°16'2 3.5
2018-May-25 00:30N 52°08' E 004°15'4 8.9
2018-May-25 00:00N 52°12' E 004°16'4 8.6
2018-May-24 23:30N 52°16' E 004°16'4 8.4
2018-May-24 23:00N 52°21' E 004°16'4 8.7
2018-May-24 22:30N 52°25' E 004°16'5 9.0
2018-May-24 21:55N 52°30' E 004°16'29 3.6
2018-May-24 13:52N 52°59' E 004°13'3 6.9
2018-May-24 13:28N 53°01' E 004°16'7 1.5
2018-May-24 09:00N 52°55' E 004°13'4 1.1
2018-May-24 05:09N 52°59' E 004°12'1 5.6
2018-May-24 04:58N 52°60' E 004°13'0 0.1
2018-May-24 03:49N 52°59' E 004°13'1 3.1
2018-May-24 03:29N 53°00' E 004°13'16 4.5
2018-May-23 23:54N 53°16' E 004°19'5 5.0
2018-May-23 22:50N 53°21' E 004°22'4 5.5
2018-May-23 22:00N 53°26' E 004°23'3 6.0
2018-May-23 21:30N 53°29' E 004°23'2 3.1
2018-May-23 21:00N 53°30' E 004°25'2 1.9
2018-May-23 20:06N 53°30' E 004°28'0 0.9
2018-May-23 20:00N 53°30' E 004°28'0 0.7
2018-May-23 19:30N 53°30' E 004°29'1 1.8
2018-May-23 18:51N 53°31' E 004°28'0 0.9
2018-May-23 18:30N 53°31' E 004°28'1 2.2
2018-May-23 18:00N 53°32' E 004°29'1 1.4
2018-May-23 17:30N 53°32' E 004°28'0 0.7
2018-May-23 16:52N 53°32' E 004°29'0 1.2
2018-May-23 16:30N 53°32' E 004°29'0 0.1
2018-May-23 16:00N 53°32' E 004°29'0 0.9
2018-May-23 15:30N 53°33' E 004°29'1 1.2
2018-May-23 15:01N 53°32' E 004°29'2 3.5
2018-May-23 14:30N 53°31' E 004°28'0 0.7
2018-May-23 14:00N 53°31' E 004°28'0 0.3
2018-May-23 13:30N 53°31' E 004°28'0 0.8
2018-May-23 12:58N 53°31' E 004°29'0 0.9
2018-May-23 12:30N 53°31' E 004°28'0 0.6
2018-May-23 11:59N 53°31' E 004°28'2 2.6
2018-May-23 11:20N 53°32' E 004°26'0 0.8
2018-May-23 11:00N 53°31' E 004°25'1 0.6
2018-May-23 09:29N 53°31' E 004°25'0 0.5
2018-May-23 09:00N 53°31' E 004°24'2 0.9
2018-May-23 06:37N 53°32' E 004°27'1 5.9
2018-May-23 06:26N 53°32' E 004°29'13 7.5
2018-May-23 04:39N 53°41' E 004°46'0 1.0
2018-May-23 04:24N 53°41' E 004°46'0 0.8
2018-May-23 04:00N 53°41' E 004°45'1 2.8
2018-May-23 03:30N 53°42' E 004°44'4 7.9
2018-May-23 03:00N 53°38' E 004°44'3 6.7
2018-May-23 02:31N 53°36' E 004°49'610.2
2018-May-23 01:57N 53°31' E 004°47'510.5
2018-May-23 01:30N 53°26' E 004°44'2211.2
2018-May-22 23:32N 53°06' E 004°31'111.6
2018-May-22 23:30N 53°05' E 004°31'711.7
2018-May-22 22:55N 52°58' E 004°33'511.2
2018-May-22 22:30N 52°54' E 004°35'3 6.8
2018-May-22 22:00N 52°56' E 004°40'4 7.7
2018-May-22 21:30N 52°58' E 004°45'1 2.9
2018-May-22 21:00N 52°57' E 004°47'0 0.0
2018-May-22 20:30N 52°57' E 004°47'1 1.9
2018-May-22 20:00N 52°58' E 004°47'4 8.7
2018-May-22 19:30N 52°56' E 004°40'4 8.2
2018-May-22 19:00N 52°53' E 004°35'5 9.3
2018-May-22 18:30N 52°54' E 004°28'5 9.6
2018-May-22 18:00N 52°54' E 004°20'4 8.5
2018-May-22 17:30N 52°56' E 004°14'1 1.3
2018-May-22 17:00N 52°57' E 004°14'1 1.5
2018-May-22 16:30N 52°58' E 004°14'1 1.5
2018-May-22 16:00N 52°57' E 004°15'1 1.0
2018-May-22 15:26N 52°58' E 004°16'1 3.1
2018-May-22 15:00N 52°59' E 004°16'8 7.4
2018-May-22 13:56N 53°07' E 004°18'3 3.3
2018-May-22 12:53N 53°11' E 004°19'1 3.2
2018-May-22 12:30N 53°09' E 004°18'1 0.6
2018-May-22 11:29N 53°10' E 004°17'0 0.4
2018-May-22 10:54N 53°10' E 004°17'510.8
2018-May-22 10:26N 53°05' E 004°16'3 5.9
2018-May-22 09:57N 53°02' E 004°15'0 0.9
2018-May-22 09:27N 53°01' E 004°14'1 1.1
2018-May-22 08:59N 53°01' E 004°14'0 0.1
2018-May-22 08:26N 53°01' E 004°14'1 2.0
2018-May-22 07:54N 53°00' E 004°12'2 3.2
2018-May-22 07:16N 52°59' E 004°11'0 0.7
2018-May-22 06:34N 52°59' E 004°11'0 0.6
2018-May-22 06:30N 52°59' E 004°11'0 0.2
2018-May-22 06:00N 52°59' E 004°11'2 4.1
2018-May-22 05:30N 52°59' E 004°15'0 0.8
2018-May-22 04:59N 52°59' E 004°15'0 0.3
2018-May-22 04:31N 52°59' E 004°15'1 1.1
2018-May-22 04:00N 52°59' E 004°16'1 1.1
2018-May-22 03:30N 52°60' E 004°17'0 0.8
2018-May-22 03:00N 52°60' E 004°16'0 0.8
2018-May-22 02:30N 52°59' E 004°16'0 0.6
2018-May-22 02:00N 52°60' E 004°16'1 1.1
2018-May-22 01:30N 53°00' E 004°17'1 1.2
2018-May-22 01:00N 52°60' E 004°17'4 8.3
2018-May-22 00:30N 52°57' E 004°23'5 9.8
2018-May-22 00:00N 52°55' E 004°30'510.0
2018-May-21 23:30N 52°53' E 004°38'5 9.9
2018-May-21 23:00N 52°57' E 004°42'3 5.7
2018-May-21 22:31N 52°57' E 004°47'0 0.1
2018-May-21 22:00N 52°57' E 004°47'0 0.0
2018-May-21 21:30N 52°57' E 004°47'0 0.0
2018-May-21 21:00N 52°57' E 004°47'0 0.0
2018-May-21 20:30N 52°57' E 004°47'0 0.0
2018-May-21 20:00N 52°57' E 004°47'2 4.6
2018-May-21 19:30N 52°58' E 004°43'510.3
2018-May-21 19:00N 52°54' E 004°38'4 8.6
2018-May-21 18:30N 52°55' E 004°31'5 9.1
2018-May-21 18:00N 52°56' E 004°24'5 9.4
2018-May-21 17:30N 52°59' E 004°17'2 1.8
2018-May-21 16:40N 52°60' E 004°16'0 1.2
2018-May-21 16:30N 52°60' E 004°16'0 0.3
2018-May-21 16:00N 53°00' E 004°16'2 2.2
2018-May-21 14:56N 53°02' E 004°16'1 1.6
2018-May-21 14:28N 53°02' E 004°17'2 2.4
2018-May-21 13:44N 53°04' E 004°19'1 2.8
2018-May-21 13:28N 53°05' E 004°18'1 0.9
2018-May-21 12:10N 53°05' E 004°20'1 4.7
2018-May-21 11:59N 53°06' E 004°20'5 3.3
2018-May-21 10:35N 53°01' E 004°19'2 1.7
2018-May-21 09:13N 52°59' E 004°17'1 5.7
2018-May-21 09:00N 52°58' E 004°16'1 2.4
2018-May-21 08:30N 52°59' E 004°16'0 0.9
2018-May-21 07:59N 52°59' E 004°16'1 2.8
2018-May-21 07:27N 52°57' E 004°16'2 4.5
2018-May-21 07:00N 52°59' E 004°15'0 0.2
2018-May-21 06:30N 52°59' E 004°15'0 0.6
2018-May-21 06:00N 52°59' E 004°15'0 0.5
2018-May-21 05:30N 52°59' E 004°15'1 1.5
2018-May-21 04:59N 52°60' E 004°16'0 0.8
2018-May-21 04:31N 52°60' E 004°17'0 0.9
2018-May-21 04:00N 52°59' E 004°16'6 9.0
2018-May-21 03:21N 52°54' E 004°13'3 7.9
2018-May-21 03:00N 52°51' E 004°15'4 8.0
2018-May-21 02:30N 52°48' E 004°19'5 9.0
2018-May-21 02:00N 52°44' E 004°19'5 9.0
2018-May-21 01:29N 52°39' E 004°19'4 9.1
2018-May-21 01:00N 52°35' E 004°19'4 9.0
2018-May-21 00:30N 52°30' E 004°18'5 9.1
2018-May-21 00:01N 52°26' E 004°17'5 9.2
2018-May-20 23:30N 52°21' E 004°16'5 9.4
2018-May-20 23:00N 52°16' E 004°16'5 9.7
2018-May-20 22:31N 52°12' E 004°15'  
2018-May-18 00:23N 52°06' E 004°16'0 0.3
2018-May-18 00:01N 52°06' E 004°16'0 0.0
2018-May-17 23:30N 52°06' E 004°16'0 0.0
2018-May-17 23:00N 52°06' E 004°16'8 8.2
2018-May-17 22:00N 52°14' E 004°16'611.4
2018-May-17 21:31N 52°20' E 004°16'611.4
2018-May-17 21:00N 52°26' E 004°17'611.2
2018-May-17 20:30N 52°31' E 004°19'30 1.4
2018-May-16 23:36N 52°46' E 003°36'7 5.7
2018-May-16 22:19N 52°44' E 003°25'2 5.5
2018-May-16 21:55N 52°43' E 003°22'2 5.4
2018-May-16 21:30N 52°42' E 003°18'10 5.8
2018-May-16 19:43N 52°40' E 003°01'1 1.3
2018-May-16 18:42N 52°40' E 002°60'1 1.9
2018-May-16 18:20N 52°41' E 002°59'1 3.9
2018-May-16 17:57N 52°40' E 003°01'0 0.7
2018-May-16 17:29N 52°40' E 003°01'1 0.9
2018-May-16 16:49N 52°39' E 003°01'0 0.9
2018-May-16 16:28N 52°39' E 003°01'1 2.1
2018-May-16 15:51N 52°38' E 003°03'1 2.0
2018-May-16 15:29N 52°38' E 003°02'1 1.4
2018-May-16 14:52N 52°38' E 003°00'6 0.7
2018-May-16 07:09N 52°37' E 002°51'2 8.3
2018-May-16 06:57N 52°35' E 002°51'6 8.7
2018-May-16 06:18N 52°29' E 002°49'4 9.7
2018-May-16 05:54N 52°26' E 002°48'1810.7
2018-May-16 04:10N 52°08' E 002°41'411.4
2018-May-16 03:50N 52°04' E 002°40'511.4
2018-May-16 03:26N 51°59' E 002°39'610.5
2018-May-16 02:50N 51°53' E 002°40'4 9.8
2018-May-16 02:25N 51°49' E 002°39'711.8
2018-May-16 01:50N 51°43' E 002°33'411.8
2018-May-16 01:27N 51°40' E 002°29'511.7
2018-May-16 01:00N 51°35' E 002°24'611.6
2018-May-16 00:30N 51°31' E 002°18'511.2
2018-May-16 00:00N 51°26' E 002°13'510.9
2018-May-15 23:30N 51°21' E 002°09'510.8
2018-May-15 23:00N 51°17' E 002°05'611.2
2018-May-15 22:30N 51°13' E 001°58'610.3
2018-May-15 21:54N 51°08' E 001°51'5 9.3
2018-May-15 21:24N 51°05' E 001°46'3 8.6
2018-May-15 21:00N 51°02' E 001°43'4 8.0
2018-May-15 20:30N 50°59' E 001°38'16 5.9
2018-May-15 17:49N 50°44' E 001°35'0 0.0
2018-May-15 17:30N 50°44' E 001°35'40 4.8
2018-May-15 09:05N 50°31' E 000°35'1 0.4
2018-May-15 07:24N 50°31' E 000°34'6 3.4
2018-May-15 05:42N 50°34' E 000°42'1 4.8
2018-May-15 05:30N 50°35' E 000°42'1 2.4
2018-May-15 04:57N 50°33' E 000°42'1 1.2
2018-May-15 04:22N 50°34' E 000°43'0 0.9
2018-May-15 04:00N 50°34' E 000°43'0 0.8
2018-May-15 03:24N 50°34' E 000°44'1 1.5
2018-May-15 02:52N 50°34' E 000°45'0 1.2
2018-May-15 02:28N 50°35' E 000°46'1 1.1
2018-May-15 01:56N 50°35' E 000°46'  

Dump ship's entire track history